Hundvaag 1 weather for Jan 1998
Month no. 127
Obs.
Da.
Temp. Dew Point Precip. Wind
Speed
Wind gusts Cloud cover Press. Humidity Wind dir. Sunny OPT
01.01.1998 4,8   5,0     4          
02.01.1998 5,8   1,0     1          
03.01.1998 6,6   0,0     0          
04.01.1998 6,2   11,0     0          
05.01.1998 1,8   1,0     10          
06.01.1998 2,0   1,0     3       1  
07.01.1998 4,2   0,0     0       1  
08.01.1998 3,0   6,0     4       1  
09.01.1998 1,7   0,0     0          
10.01.1998 8,2   6,0     0          
11.01.1998 8,1   18,0     1          
12.01.1998 9,1   0,0     0          
13.01.1998 7,1   0,0     0          
14.01.1998 8,3   2,0     0          
15.01.1998 5,8   9,0     0          
16.01.1998 3,6   5,0     1       1  
17.01.1998 3,7   17,0     7       1  
18.01.1998 -1,6   0,0     10       1  
19.01.1998 1,1   0,0     0       1  
20.01.1998 -0,3   0,0     10       1  
21.01.1998 -6,6   0,0     10       1  
22.01.1998 2,2   0,0     0          
23.01.1998 5,1   7,0     0       1  
24.01.1998 -0,4   3,0     9       1  
25.01.1998 -0,9   0,0     9       1  
26.01.1998 -2,8   0,0     10       1  
27.01.1998 5,0   0,0     0          
28.01.1998 1,7   2,0     0          
29.01.1998 -1,0   0,0     10       1  
30.01.1998 1,7   1,0     10       1  
31.01.1998 -6,1   0,0     10       1  
Avrg/Sum 2,8   95,0     3,8       16